Terminal Aerodrome Forecast
Issued by NWS

Current Version | Previous Version | Text Only | Print | Product List | Glossary On
Versions: 1 2 3 4 5 6 7 8 9 10 11 12 13 14 15 16 17 18 19 20 21 22 23
567
FTUS44 KBMX 021729
TAFTOI
TAF
KTOI 021729Z 0218/0318 21007KT P6SM SHRA VCTS BKN040CB
      TEMPO 0218/0222 4SM TSRA BKN025CB OVC040
     FM030000 20005KT P6SM SHRA VCTS BKN040CB OVC100
     FM030300 22004KT P6SM VCSH BKN050 OVC100
     FM030600 26003KT 5SM BR SCT007 BKN015=

USA.gov is the U.S. government's official web portal to all federal, state and local government web resources and services.